CCGS Amundsen — CGDT — position and weather

sailwx.info

Track history (hours):
 
Tides and Currents Weather Stations Pressure Air Temp Water Temp Dewpoint Dewpoint Depression Visibility Wind Speed Wind Dir Waves Ship Positions

Oceanographic research ship CCGS Amundsen (Canada)

Detailed information on ship capabilities available from ARCUS's ALIAS (Arctic Logistics Information and Support) project.

Last reported at 2020-Jul-22 10:07 UTC. Time now 2020-Aug-07 09:49 UTC.
Position N 44°42' W 062°11'.
Warning: this ship's position is 15 days out of date.

Length 98.3 m; beam 19.5 m; draft 7.3 m.

Type: SAR. MMSI: 316050000.

Date/timePositionNaut miles runAvg speedWind from/ knotsBaromVisibWave heightAir tempDewpointWater temp
2020-Jul-22 10:07N 44°42' W 062°11'2411.4
2020-Jul-22 08:00N 44°33' W 062°42'1711.3
2020-Jul-22 06:30N 44°25' W 063°03'16 4.7
2020-Jul-22 03:01N 44°20' W 063°25'714.3
2020-Jul-22 02:30N 44°27' W 063°29'12 3.0
2020-Jul-21 22:28N 44°39' W 063°33'0 0.0
2020-Jul-21 21:28N 44°39' W 063°33'0 0.0
2020-Jul-21 20:00N 44°39' W 063°33'0 0.0
2020-Jul-21 19:30N 44°39' W 063°33'0 0.0
2020-Jul-21 17:30N 44°39' W 063°33'0 0.0
2020-Jul-21 15:29N 44°39' W 063°33'0 0.0
2020-Jul-21 13:29N 44°39' W 063°33'0 0.0
2020-Jul-21 11:59N 44°39' W 063°33'2 1.0
2020-Jul-21 09:31N 44°40' W 063°35'1 0.8
2020-Jul-21 08:00N 44°41' W 063°37'0 0.0
2020-Jul-21 07:30N 44°41' W 063°37'0 0.0
2020-Jul-21 04:29N 44°41' W 063°37'0 0.0
2020-Jul-21 02:29N 44°41' W 063°37'0 0.0
2020-Jul-20 23:59N 44°41' W 063°37'0 0.0
2020-Jul-20 20:58N 44°41' W 063°37'0 0.0
2020-Jul-20 19:00N 44°41' W 063°37'0 0.0
2020-Jul-20 15:27N 44°41' W 063°37'0 0.0
2020-Jul-20 15:00N 44°41' W 063°37'0 0.0
2020-Jul-20 14:00N 44°41' W 063°37'0 0.0
2020-Jul-20 08:57N 44°41' W 063°37'0 0.0
2020-Jul-20 05:30N 44°41' W 063°37'0 0.0
2020-Jul-20 05:00N 44°41' W 063°37'0 0.0
2020-Jul-20 03:29N 44°41' W 063°37'0 0.0
2020-Jul-20 02:59N 44°41' W 063°37'0 0.0
2020-Jul-20 01:59N 44°41' W 063°37'0 0.0
2020-Jul-19 22:59N 44°41' W 063°37'0 0.0
2020-Jul-19 21:29N 44°41' W 063°37'0 0.0
2020-Jul-19 17:29N 44°41' W 063°37'0 0.0
2020-Jul-19 16:28N 44°41' W 063°37'0 0.0
2020-Jul-19 15:58N 44°41' W 063°37'0 0.0
2020-Jul-19 14:58N 44°41' W 063°37'22 4.0
2020-Jul-19 09:30N 44°28' W 063°12'610.8
2020-Jul-19 08:59N 44°30' W 063°05'  
Track history (hours):
 
Tides and Currents Weather Stations Pressure Air Temp Water Temp Dewpoint Dewpoint Depression Visibility Wind Speed Wind Dir Waves Ship Positions

Oceanographic research ship CCGS Amundsen (Canada)

Detailed information on ship capabilities available from ARCUS's ALIAS (Arctic Logistics Information and Support) project.

Last reported at 2020-Jul-22 10:07 UTC. Time now 2020-Aug-07 09:49 UTC.
Position N 44°42' W 062°11'.
Warning: this ship's position is 15 days out of date.

Length 98.3 m; beam 19.5 m; draft 7.3 m.

Type: SAR. MMSI: 316050000.

Date/timePositionNaut miles runAvg speedWind from/ knotsBaromVisibWave heightAir tempDewpointWater temp
2020-Jul-22 10:07N 44°42' W 062°11'2411.4
2020-Jul-22 08:00N 44°33' W 062°42'1711.3
2020-Jul-22 06:30N 44°25' W 063°03'16 4.7
2020-Jul-22 03:01N 44°20' W 063°25'714.3
2020-Jul-22 02:30N 44°27' W 063°29'12 3.0
2020-Jul-21 22:28N 44°39' W 063°33'0 0.0
2020-Jul-21 21:28N 44°39' W 063°33'0 0.0
2020-Jul-21 20:00N 44°39' W 063°33'0 0.0
2020-Jul-21 19:30N 44°39' W 063°33'0 0.0
2020-Jul-21 17:30N 44°39' W 063°33'0 0.0
2020-Jul-21 15:29N 44°39' W 063°33'0 0.0
2020-Jul-21 13:29N 44°39' W 063°33'0 0.0
2020-Jul-21 11:59N 44°39' W 063°33'2 1.0
2020-Jul-21 09:31N 44°40' W 063°35'1 0.8
2020-Jul-21 08:00N 44°41' W 063°37'0 0.0
2020-Jul-21 07:30N 44°41' W 063°37'0 0.0
2020-Jul-21 04:29N 44°41' W 063°37'0 0.0
2020-Jul-21 02:29N 44°41' W 063°37'0 0.0
2020-Jul-20 23:59N 44°41' W 063°37'0 0.0
2020-Jul-20 20:58N 44°41' W 063°37'0 0.0
2020-Jul-20 19:00N 44°41' W 063°37'0 0.0
2020-Jul-20 15:27N 44°41' W 063°37'0 0.0
2020-Jul-20 15:00N 44°41' W 063°37'0 0.0
2020-Jul-20 14:00N 44°41' W 063°37'0 0.0
2020-Jul-20 08:57N 44°41' W 063°37'0 0.0
2020-Jul-20 05:30N 44°41' W 063°37'0 0.0
2020-Jul-20 05:00N 44°41' W 063°37'0 0.0
2020-Jul-20 03:29N 44°41' W 063°37'0 0.0
2020-Jul-20 02:59N 44°41' W 063°37'0 0.0
2020-Jul-20 01:59N 44°41' W 063°37'0 0.0
2020-Jul-19 22:59N 44°41' W 063°37'0 0.0
2020-Jul-19 21:29N 44°41' W 063°37'0 0.0
2020-Jul-19 17:29N 44°41' W 063°37'0 0.0
2020-Jul-19 16:28N 44°41' W 063°37'0 0.0
2020-Jul-19 15:58N 44°41' W 063°37'0 0.0
2020-Jul-19 14:58N 44°41' W 063°37'22 4.0
2020-Jul-19 09:30N 44°28' W 063°12'610.8
2020-Jul-19 08:59N 44°30' W 063°05'  

Dump ship's entire track history